Time;durP1;ratioP1;P1;durP2;ratioP2;P2;SDS_P1;SDS_P2;PMS_P1;PMS_P2;Temp;Humidity;BMP_temperature;BMP_pressure;BME280_temperature;BME280_humidity;BME280_pressure;Samples;Min_cycle;Max_cycle;Signal;HPM_P1;HPM_P2
2023/08/16 00:02:29;;;;;;;27.70;10.10;;;;;;;28.08;45.51;99152.09;135842;1255;22527;-61
2023/08/16 00:05:32;;;;;;;25.80;9.90;;;;;;;27.88;45.91;99151.13;135807;1258;22526;-64
2023/08/16 00:08:35;;;;;;;26.80;9.30;;;;;;;28.00;45.71;99149.52;135820;1276;22565;-63
2023/08/16 00:11:37;;;;;;;24.00;9.10;;;;;;;27.91;45.81;99147.99;135818;1257;24279;-60
2023/08/16 00:14:40;;;;;;;25.40;9.10;;;;;;;27.51;46.77;99149.59;135821;1276;22548;-63
2023/08/16 00:17:43;;;;;;;25.00;9.60;;;;;;;27.58;46.65;99155.39;135846;1276;22533;-64
2023/08/16 00:20:45;;;;;;;23.50;9.60;;;;;;;27.67;46.41;99154.80;135828;1258;22520;-64
2023/08/16 00:23:47;;;;;;;21.50;8.90;;;;;;;27.85;45.96;99153.21;135742;1276;24234;-62
2023/08/16 00:26:50;;;;;;;23.90;8.20;;;;;;;27.91;45.91;99154.88;135816;1276;22534;-64
2023/08/16 00:29:52;;;;;;;23.30;9.10;;;;;;;27.95;45.87;99150.27;135709;1276;22646;-65
2023/08/16 00:32:55;;;;;;;22.50;8.80;;;;;;;28.08;45.66;99143.09;135617;1260;22570;-64
2023/08/16 00:35:57;;;;;;;23.50;8.70;;;;;;;28.00;45.67;99136.61;135875;1276;22542;-63
2023/08/16 00:39:00;;;;;;;21.40;8.70;;;;;;;27.79;46.02;99137.10;135740;1259;24233;-62
2023/08/16 00:42:02;;;;;;;23.20;9.00;;;;;;;27.48;46.55;99137.61;135818;1276;22546;-64
2023/08/16 00:45:05;;;;;;;20.70;8.40;;;;;;;26.92;47.94;99144.90;135830;1276;22522;-64
2023/08/16 00:48:07;;;;;;;26.90;9.50;;;;;;;27.45;46.94;99148.34;135841;1276;22540;-64
2023/08/16 00:51:10;;;;;;;23.00;9.00;;;;;;;27.59;46.63;99142.48;135708;1258;22656;-64
2023/08/16 00:54:12;;;;;;;23.10;9.70;;;;;;;27.59;46.51;99145.52;135853;1276;22553;-62
2023/08/16 00:57:15;;;;;;;22.90;9.50;;;;;;;27.48;46.51;99144.21;135842;1276;22527;-67
2023/08/16 01:00:17;;;;;;;22.20;9.40;;;;;;;27.41;46.58;99145.36;135812;1256;22535;-65
2023/08/16 01:03:20;;;;;;;23.10;9.30;;;;;;;27.42;46.59;99142.89;135788;1276;22540;-60
2023/08/16 01:06:22;;;;;;;21.30;8.80;;;;;;;27.37;46.84;99145.95;135830;1256;22577;-62
2023/08/16 01:09:25;;;;;;;23.30;10.10;;;;;;;27.43;46.80;99143.47;135817;1267;22519;-64
2023/08/16 01:12:28;;;;;;;28.50;12.50;;;;;;;27.46;46.78;99145.62;135866;1276;22559;-61
2023/08/16 01:15:30;;;;;;;22.40;9.70;;;;;;;27.44;46.72;99146.76;135739;1276;22538;-60
2023/08/16 01:18:33;;;;;;;22.10;9.60;;;;;;;27.31;46.78;99150.83;135826;1258;23951;-64
2023/08/16 01:21:35;;;;;;;50.10;27.40;;;;;;;27.26;46.82;99151.80;135833;1276;22562;-66
2023/08/16 01:24:38;;;;;;;40.90;21.30;;;;;;;27.20;47.14;99147.20;135862;1258;24356;-61
2023/08/16 01:27:40;;;;;;;33.60;13.70;;;;;;;27.17;47.37;99150.86;135845;1276;24397;-61
2023/08/16 01:30:45;;;;;;;22.60;10.10;;;;;;;27.14;47.28;99155.01;135815;1253;24245;-61
2023/08/16 01:33:47;;;;;;;23.80;10.50;;;;;;;27.03;47.37;99161.36;135871;1276;24225;-62
2023/08/16 01:36:50;;;;;;;26.60;11.00;;;;;;;26.90;47.75;99163.27;135850;1276;22526;-63
2023/08/16 01:39:52;;;;;;;22.10;10.20;;;;;;;26.82;48.07;99163.89;135831;1276;22522;-60
2023/08/16 01:42:54;;;;;;;22.10;8.80;;;;;;;26.53;48.58;99166.63;135833;1276;22665;-65
2023/08/16 01:45:57;;;;;;;22.50;8.70;;;;;;;25.99;50.09;99176.71;135867;1276;24847;-65
2023/08/16 01:48:59;;;;;;;26.70;9.90;;;;;;;25.77;50.97;99195.77;135871;1276;22531;-61
2023/08/16 01:52:02;;;;;;;23.60;9.10;;;;;;;25.67;50.59;99199.25;135844;1276;22531;-64
2023/08/16 01:55:04;;;;;;;23.20;9.20;;;;;;;25.87;49.95;99193.52;135854;1276;22534;-65
2023/08/16 01:58:07;;;;;;;25.40;10.10;;;;;;;26.37;48.85;99197.53;135811;1276;22533;-64
2023/08/16 02:01:09;;;;;;;25.70;9.80;;;;;;;26.29;49.07;99194.07;135852;1265;22597;-63
2023/08/16 02:04:12;;;;;;;23.00;9.30;;;;;;;26.22;49.42;99200.77;135864;1276;22635;-63
2023/08/16 02:07:14;;;;;;;22.20;9.20;;;;;;;26.68;48.53;99201.70;135813;1258;22648;-65
2023/08/16 02:10:18;;;;;;;24.00;10.20;;;;;;;26.82;48.28;99200.73;135828;1259;22522;-61
2023/08/16 02:13:20;;;;;;;26.50;9.50;;;;;;;26.81;48.47;99199.58;135862;1276;22537;-61
2023/08/16 02:16:23;;;;;;;22.50;10.30;;;;;;;26.52;49.36;99192.52;135855;1276;22523;-61
2023/08/16 02:19:26;;;;;;;23.50;9.90;;;;;;;26.64;49.02;99190.73;135741;1276;22525;-62
2023/08/16 02:22:28;;;;;;;22.70;10.00;;;;;;;26.99;47.96;99188.00;135835;1269;24222;-63
2023/08/16 02:25:31;;;;;;;22.40;8.90;;;;;;;26.59;48.27;99178.78;135816;1276;22533;-64
2023/08/16 02:28:33;;;;;;;21.10;8.20;;;;;;;26.29;48.55;99170.97;135866;1276;22600;-60
2023/08/16 02:31:36;;;;;;;19.60;8.10;;;;;;;26.32;48.49;99171.42;135877;1276;22522;-63
2023/08/16 02:34:38;;;;;;;22.80;10.30;;;;;;;26.25;49.05;99170.38;135833;1276;22530;-61
2023/08/16 02:37:41;;;;;;;25.70;9.90;;;;;;;26.32;49.19;99174.27;135836;1257;24243;-61
2023/08/16 02:40:43;;;;;;;24.70;9.60;;;;;;;26.70;48.45;99165.08;135772;1276;22538;-61
2023/08/16 02:43:46;;;;;;;23.70;9.50;;;;;;;26.74;48.38;99161.33;135867;1276;22547;-60
2023/08/16 02:46:48;;;;;;;24.10;9.40;;;;;;;26.75;48.50;99157.60;135837;1255;22571;-60
2023/08/16 02:49:51;;;;;;;21.70;9.50;;;;;;;26.69;48.28;99157.46;135685;1276;22573;-62
2023/08/16 02:52:53;;;;;;;22.10;9.20;;;;;;;26.62;48.35;99160.79;135849;1276;22538;-60
2023/08/16 02:55:55;;;;;;;21.40;9.10;;;;;;;26.63;48.52;99163.45;135816;1258;22543;-65
2023/08/16 02:58:59;;;;;;;25.80;10.10;;;;;;;26.70;48.43;99162.17;135847;1257;22530;-62
2023/08/16 03:02:01;;;;;;;24.20;9.60;;;;;;;26.62;48.65;99158.92;135859;1274;22516;-62
2023/08/16 03:05:04;;;;;;;24.00;10.10;;;;;;;26.71;48.54;99154.88;135779;1276;22544;-60
2023/08/16 03:08:07;;;;;;;22.80;9.70;;;;;;;26.81;48.22;99152.38;135655;1254;22559;-62
2023/08/16 03:11:09;;;;;;;21.70;9.10;;;;;;;26.83;47.96;99156.16;135858;1276;22600;-61
2023/08/16 03:14:11;;;;;;;25.10;9.40;;;;;;;26.83;47.91;99155.87;135900;1276;25407;-63
2023/08/16 03:17:14;;;;;;;20.20;9.60;;;;;;;26.96;47.72;99155.08;135837;1276;22535;-63
2023/08/16 03:20:17;;;;;;;24.90;10.00;;;;;;;26.98;47.66;99157.10;135842;1276;22519;-59
2023/08/16 03:23:19;;;;;;;22.00;9.90;;;;;;;26.86;47.82;99151.80;135844;1258;22536;-60
2023/08/16 03:26:22;;;;;;;21.20;9.60;;;;;;;26.85;47.71;99156.92;135730;1259;22919;-60
2023/08/16 03:29:24;;;;;;;21.00;9.30;;;;;;;26.89;47.47;99158.00;135852;1276;22545;-62
2023/08/16 03:32:27;;;;;;;24.70;10.30;;;;;;;26.73;47.48;99159.35;135884;1259;22536;-63
2023/08/16 03:35:29;;;;;;;22.50;10.10;;;;;;;26.59;47.87;99156.34;135793;1276;22686;-60
2023/08/16 03:38:32;;;;;;;22.30;10.20;;;;;;;26.60;48.07;99154.85;135763;1276;24989;-63
2023/08/16 03:41:34;;;;;;;23.50;10.40;;;;;;;26.43;48.19;99161.10;135864;1258;22671;-61
2023/08/16 03:44:37;;;;;;;22.10;10.40;;;;;;;26.39;48.11;99169.73;135634;1276;22574;-66
2023/08/16 03:47:39;;;;;;;26.00;11.40;;;;;;;26.49;47.97;99169.73;135873;1258;22732;-62
2023/08/16 03:50:42;;;;;;;25.80;10.80;;;;;;;26.48;47.98;99165.17;135847;1276;24720;-62
2023/08/16 03:53:44;;;;;;;25.60;10.90;;;;;;;25.92;49.70;99164.58;135830;1275;22523;-66
2023/08/16 03:56:47;;;;;;;24.20;9.80;;;;;;;26.06;49.73;99171.77;135872;1259;22523;-66
2023/08/16 03:59:50;;;;;;;23.90;9.80;;;;;;;26.48;48.74;99178.49;135872;1276;22606;-61
2023/08/16 04:02:52;;;;;;;23.10;10.50;;;;;;;26.67;48.68;99184.98;135801;1276;22655;-61
2023/08/16 04:05:54;;;;;;;24.80;10.60;;;;;;;26.41;49.63;99183.05;135621;1258;22553;-64
2023/08/16 04:08:57;;;;;;;23.20;10.20;;;;;;;26.52;49.76;99178.21;135848;1276;22520;-65
2023/08/16 04:11:59;;;;;;;23.60;10.00;;;;;;;26.69;49.63;99177.42;135844;1276;23895;-62
2023/08/16 04:15:03;;;;;;;22.80;9.80;;;;;;;26.81;49.38;99181.64;135825;1259;22823;-63
2023/08/16 04:18:06;;;;;;;22.80;10.50;;;;;;;26.86;49.29;99186.98;135848;1276;22522;-66
2023/08/16 04:21:09;;;;;;;25.00;10.50;;;;;;;26.82;49.79;99187.61;135743;1276;24385;-62
2023/08/16 04:24:12;;;;;;;25.20;11.00;;;;;;;26.90;49.72;99184.67;135848;1258;22529;-63
2023/08/16 04:27:14;;;;;;;23.60;10.50;;;;;;;26.96;49.93;99180.27;135835;1276;22520;-64
2023/08/16 04:30:17;;;;;;;22.10;10.30;;;;;;;27.47;48.89;99182.25;135730;1276;22533;-65
2023/08/16 04:33:19;;;;;;;22.70;11.00;;;;;;;27.86;48.84;99186.45;135853;1274;22532;-66
2023/08/16 04:36:22;;;;;;;22.30;10.30;;;;;;;28.18;48.72;99187.06;135874;1264;22529;-63
2023/08/16 04:39:24;;;;;;;24.10;10.50;;;;;;;28.44;48.69;99179.52;135864;1276;22534;-61
2023/08/16 04:42:27;;;;;;;21.30;9.40;;;;;;;28.84;48.37;99177.23;135800;1276;25339;-60
2023/08/16 04:45:30;;;;;;;23.00;9.80;;;;;;;29.04;48.08;99178.14;135879;1276;22522;-61
2023/08/16 04:48:32;;;;;;;26.20;10.00;;;;;;;29.25;47.77;99176.87;135857;1260;22517;-65
2023/08/16 04:51:34;;;;;;;24.70;10.10;;;;;;;29.45;47.68;99183.33;135842;1276;24242;-62
2023/08/16 04:54:37;;;;;;;24.10;10.00;;;;;;;29.50;47.73;99188.09;135822;1276;22539;-67
2023/08/16 04:57:39;;;;;;;22.10;9.90;;;;;;;29.53;47.31;99192.34;135906;1276;22523;-64
2023/08/16 05:00:42;;;;;;;23.40;10.20;;;;;;;29.45;47.87;99196.55;135861;1258;22526;-61
2023/08/16 05:03:50;;;;;;;20.40;9.90;;;;;;;29.52;47.86;99197.54;135859;1276;25234;-63
2023/08/16 05:06:52;;;;;;;25.00;9.80;;;;;;;29.92;47.85;99200.85;135875;1276;22531;-62
2023/08/16 05:09:55;;;;;;;22.10;9.60;;;;;;;30.24;47.34;99193.92;135860;1276;22526;-59
2023/08/16 05:12:57;;;;;;;24.50;9.60;;;;;;;30.20;46.92;99188.98;135877;1276;22574;-63
2023/08/16 05:16:00;;;;;;;21.20;9.70;;;;;;;30.40;47.11;99192.67;135838;1276;22519;-63
2023/08/16 05:19:02;;;;;;;24.70;9.20;;;;;;;30.24;47.62;99193.88;135857;1276;22538;-60
2023/08/16 05:22:05;;;;;;;26.20;10.40;;;;;;;30.25;47.47;99189.39;135876;1276;22526;-60
2023/08/16 05:25:07;;;;;;;20.60;8.60;;;;;;;30.43;47.32;99195.48;135706;1276;22547;-61
2023/08/16 05:28:09;;;;;;;22.40;9.60;;;;;;;30.68;47.01;99201.77;135873;1276;22524;-63
2023/08/16 05:31:12;;;;;;;24.30;9.90;;;;;;;31.01;46.55;99199.97;135890;1258;22520;-63
2023/08/16 05:34:16;;;;;;;21.40;8.50;;;;;;;31.27;46.23;99202.53;135859;1259;22544;-61
2023/08/16 05:37:18;;;;;;;23.00;9.10;;;;;;;31.43;45.78;99200.13;135847;1276;22537;-67
2023/08/16 05:40:21;;;;;;;23.50;8.40;;;;;;;31.90;44.66;99200.10;135881;1276;22551;-65
2023/08/16 05:43:23;;;;;;;21.30;8.40;;;;;;;32.27;44.39;99205.39;135856;1276;23182;-62
2023/08/16 05:46:25;;;;;;;21.90;8.60;;;;;;;32.44;43.81;99200.04;135852;1276;22536;-60
2023/08/16 05:49:28;;;;;;;23.90;8.30;;;;;;;32.68;43.54;99200.84;135874;1258;22519;-64
2023/08/16 05:52:31;;;;;;;22.40;8.60;;;;;;;32.96;43.37;99204.27;135837;1276;22527;-62
2023/08/16 05:55:33;;;;;;;20.80;8.30;;;;;;;33.13;43.07;99203.95;135885;1276;22534;-62
2023/08/16 05:58:36;;;;;;;19.90;8.10;;;;;;;33.41;42.17;99201.23;135855;1276;23380;-62
2023/08/16 06:01:38;;;;;;;23.40;8.50;;;;;;;33.61;42.19;99205.23;135804;1276;25354;-63
2023/08/16 06:04:41;;;;;;;23.10;8.60;;;;;;;33.75;41.34;99207.42;135859;1276;22523;-60
2023/08/16 06:07:43;;;;;;;19.90;7.60;;;;;;;33.90;41.78;99202.00;135875;1276;22520;-62
2023/08/16 06:10:46;;;;;;;23.90;8.30;;;;;;;34.16;41.49;99201.62;135860;1276;22558;-63
2023/08/16 06:13:48;;;;;;;20.50;8.10;;;;;;;34.37;41.33;99206.58;135824;1276;24183;-65
2023/08/16 06:16:51;;;;;;;21.10;8.50;;;;;;;34.47;40.72;99211.63;135855;1276;22542;-62
2023/08/16 06:19:53;;;;;;;21.40;8.50;;;;;;;34.67;40.75;99207.49;135832;1276;22541;-61
2023/08/16 06:22:55;;;;;;;22.50;8.40;;;;;;;34.84;40.36;99200.23;135871;1256;22530;-65
2023/08/16 06:25:58;;;;;;;23.50;8.20;;;;;;;34.99;40.08;99194.02;135877;1258;23558;-63
2023/08/16 06:29:00;;;;;;;25.30;8.10;;;;;;;35.09;40.11;99198.33;135877;1276;22508;-59
2023/08/16 06:32:03;;;;;;;21.20;8.50;;;;;;;35.26;40.10;99200.11;135931;1276;22523;-63
2023/08/16 06:35:08;;;;;;;22.60;8.20;;;;;;;35.56;39.94;99202.08;135893;1276;22520;-64
2023/08/16 06:38:11;;;;;;;24.00;7.80;;;;;;;35.70;39.52;99200.62;135875;1276;22516;-63
2023/08/16 06:41:14;;;;;;;22.60;8.40;;;;;;;35.81;39.03;99198.52;135801;1276;23841;-62
2023/08/16 06:44:17;;;;;;;21.60;7.90;;;;;;;35.76;39.20;99199.02;135836;1259;23002;-63
2023/08/16 06:47:19;;;;;;;21.30;8.00;;;;;;;36.05;38.47;99197.54;135734;1276;23333;-60
2023/08/16 06:50:22;;;;;;;22.70;7.90;;;;;;;35.90;38.98;99192.67;135769;1276;22525;-66
2023/08/16 06:53:25;;;;;;;18.40;7.40;;;;;;;36.36;38.48;99192.17;135905;1276;22558;-61
2023/08/16 06:56:29;;;;;;;20.00;7.10;;;;;;;36.86;37.40;99200.45;135868;1276;22522;-63
2023/08/16 06:59:31;;;;;;;20.50;7.20;;;;;;;36.77;37.21;99192.76;135890;1276;22566;-62
2023/08/16 07:02:34;;;;;;;22.10;7.40;;;;;;;36.91;37.08;99197.34;135660;1274;26651;-62
2023/08/16 07:05:36;;;;;;;18.40;6.80;;;;;;;37.12;36.85;99199.33;135800;1274;22540;-61
2023/08/16 07:08:40;;;;;;;20.90;7.20;;;;;;;36.89;37.13;99196.23;135692;1273;24255;-62
2023/08/16 07:11:43;;;;;;;21.60;7.10;;;;;;;37.06;36.90;99196.44;135810;1276;22529;-63
2023/08/16 07:14:45;;;;;;;21.60;7.70;;;;;;;37.11;36.83;99194.58;135856;1276;25226;-62
2023/08/16 07:17:48;;;;;;;20.60;7.50;;;;;;;36.98;37.36;99193.70;135834;1276;22538;-61
2023/08/16 07:20:50;;;;;;;19.50;8.10;;;;;;;37.00;37.26;99198.35;135853;1276;22516;-62
2023/08/16 07:23:52;;;;;;;24.00;7.60;;;;;;;37.24;37.04;99199.19;135725;1276;22540;-60
2023/08/16 07:26:55;;;;;;;19.80;7.50;;;;;;;37.41;36.63;99200.55;135827;1269;22524;-60
2023/08/16 07:29:58;;;;;;;18.20;7.40;;;;;;;37.52;36.08;99201.29;135770;1271;22533;-61
2023/08/16 07:33:00;;;;;;;22.00;7.70;;;;;;;37.98;35.41;99203.85;135835;1259;22520;-61
2023/08/16 07:36:03;;;;;;;21.80;7.40;;;;;;;38.16;35.77;99206.70;135838;1265;22531;-58
2023/08/16 07:39:06;;;;;;;20.40;8.00;;;;;;;38.30;35.09;99209.90;135801;1276;22525;-59
2023/08/16 07:42:08;;;;;;;20.80;7.70;;;;;;;38.29;35.24;99207.91;135859;1276;22520;-60
2023/08/16 07:45:11;;;;;;;19.80;7.10;;;;;;;38.34;34.96;99204.28;135822;1259;22500;-59
2023/08/16 07:48:13;;;;;;;19.50;7.80;;;;;;;38.51;34.56;99204.40;135826;1276;22522;-59
2023/08/16 07:51:15;;;;;;;20.80;7.10;;;;;;;38.93;33.88;99206.34;135766;1276;22519;-63
2023/08/16 07:54:18;;;;;;;20.40;7.40;;;;;;;39.20;33.85;99202.56;135785;1276;22543;-59
2023/08/16 07:57:20;;;;;;;19.10;7.20;;;;;;;39.23;33.52;99201.91;135848;1259;22541;-58
2023/08/16 08:00:23;;;;;;;18.70;7.20;;;;;;;39.37;33.85;99206.78;135817;1276;22532;-57
2023/08/16 08:03:25;;;;;;;20.20;7.40;;;;;;;39.57;33.37;99205.41;135878;1276;22561;-62
2023/08/16 08:06:28;;;;;;;19.70;7.40;;;;;;;39.72;32.60;99206.67;135889;1259;22519;-60
2023/08/16 08:09:30;;;;;;;19.80;7.00;;;;;;;39.52;32.96;99209.64;135866;1276;22538;-60
2023/08/16 08:12:33;;;;;;;17.70;7.20;;;;;;;39.64;33.38;99207.05;135790;1276;24421;-62
2023/08/16 08:15:35;;;;;;;20.00;7.30;;;;;;;39.96;32.67;99206.52;135875;1276;22529;-60
2023/08/16 08:18:38;;;;;;;20.50;7.80;;;;;;;40.13;32.46;99207.27;135893;1276;22513;-63
2023/08/16 08:21:40;;;;;;;17.70;6.80;;;;;;;40.42;33.01;99210.45;135842;1276;25340;-60
2023/08/16 08:24:43;;;;;;;20.90;7.60;;;;;;;40.69;32.51;99214.06;135894;1276;22537;-60
2023/08/16 08:27:45;;;;;;;19.70;6.60;;;;;;;40.77;31.62;99210.00;135919;1264;22559;-59
2023/08/16 08:30:48;;;;;;;17.40;6.90;;;;;;;41.01;31.93;99210.27;135860;1276;22523;-58
2023/08/16 08:33:50;;;;;;;17.80;6.80;;;;;;;41.26;31.51;99210.79;135886;1259;22555;-61
2023/08/16 08:36:53;;;;;;;17.50;6.60;;;;;;;41.49;31.38;99214.58;135761;1276;22516;-58
2023/08/16 08:39:55;;;;;;;18.00;6.60;;;;;;;41.66;30.95;99219.54;135854;1276;22530;-60
2023/08/16 08:42:57;;;;;;;21.90;6.40;;;;;;;41.96;31.21;99218.77;135813;1259;22525;-58
2023/08/16 08:46:00;;;;;;;19.10;6.40;;;;;;;42.06;30.51;99221.02;135866;1276;22534;-59
2023/08/16 08:49:02;;;;;;;19.60;6.40;;;;;;;42.05;30.30;99223.13;135893;1276;22530;-59
2023/08/16 08:52:04;;;;;;;19.60;7.10;;;;;;;42.04;29.32;99223.96;135745;1259;22553;-56
2023/08/16 08:55:07;;;;;;;18.70;6.80;;;;;;;41.80;29.37;99222.45;135879;1276;22527;-58
2023/08/16 08:58:09;;;;;;;17.80;6.60;;;;;;;41.57;30.05;99218.85;135863;1276;25356;-60
2023/08/16 09:01:13;;;;;;;19.10;6.60;;;;;;;41.79;30.02;99215.69;135846;1276;22521;-58
2023/08/16 09:04:16;;;;;;;18.50;6.40;;;;;;;41.97;29.72;99211.30;135870;1276;22525;-58
2023/08/16 09:07:18;;;;;;;20.30;6.90;;;;;;;42.14;29.40;99216.14;135898;1276;25252;-58
2023/08/16 09:10:20;;;;;;;18.40;6.70;;;;;;;42.31;29.29;99219.98;135809;1276;22535;-58
2023/08/16 09:13:23;;;;;;;17.80;6.40;;;;;;;42.46;29.00;99222.03;135763;1276;22547;-59
2023/08/16 09:16:25;;;;;;;16.80;6.40;;;;;;;42.61;28.69;99219.16;135800;1259;22540;-57
2023/08/16 09:19:27;;;;;;;19.90;6.60;;;;;;;42.60;28.39;99224.20;135875;1276;22541;-58
2023/08/16 09:22:30;;;;;;;18.60;6.90;;;;;;;42.65;28.22;99218.83;135835;1276;26489;-57
2023/08/16 09:25:32;;;;;;;21.10;6.70;;;;;;;42.56;28.13;99214.87;135797;1276;22531;-57
2023/08/16 09:28:34;;;;;;;17.10;6.40;;;;;;;42.36;28.48;99213.64;135817;1259;22534;-57
2023/08/16 09:31:37;;;;;;;18.10;6.60;;;;;;;42.12;28.17;99211.33;135778;1276;22542;-59
2023/08/16 09:34:39;;;;;;;18.50;6.60;;;;;;;42.14;28.80;99211.08;135808;1276;22535;-59
2023/08/16 09:37:41;;;;;;;16.20;6.50;;;;;;;42.66;28.91;99216.89;135773;1276;24186;-58
2023/08/16 09:40:44;;;;;;;16.10;5.80;;;;;;;43.29;28.35;99218.67;135851;1276;22580;-58
2023/08/16 09:43:46;;;;;;;17.30;6.30;;;;;;;43.84;27.43;99216.74;135885;1259;24193;-60
2023/08/16 10:01:22;;;;;;;16.90;6.20;;;;;;;44.45;26.07;99216.22;135684;1276;238677;-60
2023/08/16 10:04:24;;;;;;;17.70;6.00;;;;;;;44.56;25.28;99216.85;135653;1276;22537;-60
2023/08/16 10:07:26;;;;;;;18.60;6.50;;;;;;;44.63;26.30;99216.75;135878;1276;22537;-58
2023/08/16 10:10:29;;;;;;;18.40;6.00;;;;;;;45.11;25.95;99214.25;135897;1275;22578;-61
2023/08/16 10:13:32;;;;;;;16.10;5.60;;;;;;;45.44;25.33;99210.34;135866;1256;22519;-58
2023/08/16 10:16:34;;;;;;;20.80;6.80;;;;;;;45.54;25.27;99204.98;135881;1276;22556;-58
2023/08/16 10:19:37;;;;;;;19.40;5.80;;;;;;;45.66;25.20;99206.02;135837;1261;23621;-60
2023/08/16 10:22:39;;;;;;;19.20;6.20;;;;;;;45.26;24.98;99214.83;135898;1276;22545;-60
2023/08/16 10:25:44;;;;;;;18.20;6.00;;;;;;;44.86;24.93;99212.01;135850;1276;22523;-58
2023/08/16 10:28:47;;;;;;;13.90;4.80;;;;;;;44.72;25.02;99216.64;135777;1276;25415;-60
2023/08/16 10:31:49;;;;;;;16.30;5.40;;;;;;;44.73;24.44;99219.15;135828;1276;22547;-60
2023/08/16 10:34:54;;;;;;;18.10;5.40;;;;;;;44.59;24.44;99218.40;135777;1276;25477;-58
2023/08/16 10:37:58;;;;;;;18.30;5.70;;;;;;;44.47;24.93;99216.89;135695;1276;25306;-60
2023/08/16 10:41:00;;;;;;;18.30;5.80;;;;;;;44.47;25.14;99213.38;135877;1258;23517;-60
2023/08/16 10:44:02;;;;;;;16.50;5.50;;;;;;;44.55;24.85;99207.11;135850;1276;22538;-57
2023/08/16 10:47:05;;;;;;;17.40;6.40;;;;;;;44.77;24.87;99212.76;135877;1276;22555;-61
2023/08/16 10:50:08;;;;;;;17.80;5.80;;;;;;;45.32;24.67;99212.63;135843;1276;22544;-60
2023/08/16 10:53:12;;;;;;;16.90;6.50;;;;;;;45.81;24.51;99207.48;135814;1276;22526;-58
2023/08/16 10:56:14;;;;;;;17.10;5.50;;;;;;;46.07;24.58;99207.49;135843;1276;22535;-60
2023/08/16 10:59:17;;;;;;;18.30;5.40;;;;;;;45.99;24.25;99203.63;135859;1276;22526;-57
2023/08/16 11:02:20;;;;;;;20.80;5.80;;;;;;;45.58;24.15;99205.27;135849;1276;22525;-60
2023/08/16 11:05:24;;;;;;;14.90;5.30;;;;;;;45.38;24.27;99204.79;135794;1276;22523;-57
2023/08/16 11:08:26;;;;;;;16.40;5.10;;;;;;;45.45;23.78;99202.96;135823;1263;22532;-57
2023/08/16 11:11:29;;;;;;;14.70;5.10;;;;;;;45.45;23.90;99208.15;135853;1276;24243;-60
2023/08/16 11:14:32;;;;;;;15.90;5.50;;;;;;;45.85;23.41;99204.79;135803;1276;22538;-59
2023/08/16 11:17:35;;;;;;;18.40;5.50;;;;;;;45.99;23.25;99212.00;135830;1276;22535;-60
2023/08/16 11:20:38;;;;;;;19.60;5.60;;;;;;;45.90;23.57;99210.55;135867;1276;22536;-60
2023/08/16 11:23:40;;;;;;;18.10;5.60;;;;;;;46.18;23.25;99208.95;135855;1276;22599;-60
2023/08/16 11:26:42;;;;;;;17.80;5.60;;;;;;;46.19;23.34;99205.46;135816;1276;22529;-58
2023/08/16 11:29:45;;;;;;;16.30;5.40;;;;;;;46.58;23.60;99206.88;135850;1276;22534;-60
2023/08/16 11:32:47;;;;;;;16.70;5.70;;;;;;;46.41;23.54;99204.11;135745;1276;25405;-61
2023/08/16 11:35:49;;;;;;;14.70;5.50;;;;;;;46.48;23.58;99205.66;135805;1276;22539;-60
2023/08/16 11:38:52;;;;;;;19.40;5.30;;;;;;;46.52;22.60;99204.98;135810;1267;22538;-58
2023/08/16 11:41:54;;;;;;;18.20;5.80;;;;;;;46.61;22.75;99203.55;135833;1276;22544;-60
2023/08/16 11:44:56;;;;;;;16.70;5.40;;;;;;;46.64;23.30;99200.04;135830;1276;25415;-60
2023/08/16 11:47:59;;;;;;;17.60;5.60;;;;;;;46.59;23.28;99199.59;135824;1276;22534;-60
2023/08/16 11:51:01;;;;;;;16.00;5.20;;;;;;;46.44;22.89;99193.42;135846;1276;22530;-59
2023/08/16 11:54:04;;;;;;;14.50;5.30;;;;;;;46.35;22.69;99189.20;135757;1268;22544;-60
2023/08/16 11:57:06;;;;;;;14.40;5.30;;;;;;;46.49;22.63;99189.66;135842;1276;22960;-60
2023/08/16 12:00:08;;;;;;;15.60;5.70;;;;;;;46.93;22.29;99189.70;135807;1276;22535;-60
2023/08/16 12:03:11;;;;;;;18.70;6.10;;;;;;;46.90;22.44;99192.85;135864;1276;22531;-60
2023/08/16 12:06:14;;;;;;;16.00;6.00;;;;;;;46.60;22.53;99193.12;135865;1276;22571;-58
2023/08/16 12:09:16;;;;;;;16.60;6.00;;;;;;;46.38;22.66;99187.73;135828;1267;24935;-61
2023/08/16 12:12:18;;;;;;;19.50;6.60;;;;;;;46.55;23.18;99192.66;135844;1276;22527;-60
2023/08/16 12:15:21;;;;;;;16.80;6.10;;;;;;;46.50;23.17;99191.41;135822;1276;24208;-60
2023/08/16 12:18:23;;;;;;;19.60;6.30;;;;;;;46.49;23.25;99192.16;135812;1276;22534;-58
2023/08/16 12:21:26;;;;;;;17.30;6.30;;;;;;;46.79;23.09;99192.34;135838;1276;22548;-60
2023/08/16 12:24:28;;;;;;;16.20;6.10;;;;;;;46.84;22.81;99191.40;135860;1276;22531;-60
2023/08/16 12:27:31;;;;;;;18.40;5.90;;;;;;;46.41;22.68;99181.70;135773;1276;22526;-60
2023/08/16 12:30:33;;;;;;;16.80;5.90;;;;;;;45.81;22.96;99176.26;135833;1267;25437;-58
2023/08/16 12:33:35;;;;;;;16.60;5.90;;;;;;;45.49;23.57;99175.78;135821;1276;22528;-60
2023/08/16 12:36:38;;;;;;;15.50;6.20;;;;;;;45.41;24.21;99174.64;135829;1276;23249;-60
2023/08/16 12:39:40;;;;;;;22.50;6.90;;;;;;;45.42;24.31;99183.72;135827;1276;22545;-60
2023/08/16 12:42:42;;;;;;;21.60;7.70;;;;;;;45.15;24.86;99189.10;135841;1276;22533;-57
2023/08/16 12:45:45;;;;;;;19.40;7.00;;;;;;;44.98;25.10;99189.64;135835;1276;22535;-57
2023/08/16 12:48:48;;;;;;;19.10;7.40;;;;;;;44.83;25.16;99185.62;135790;1276;22542;-60
2023/08/16 12:51:50;;;;;;;19.50;7.10;;;;;;;44.67;25.64;99182.83;135812;1276;22528;-60
2023/08/16 12:54:52;;;;;;;25.90;7.70;;;;;;;44.58;25.62;99175.40;135801;1276;22512;-59
2023/08/16 12:57:56;;;;;;;19.10;7.30;;;;;;;44.59;25.90;99173.45;135810;1276;22529;-60
2023/08/16 13:00:59;;;;;;;20.30;7.40;;;;;;;44.56;25.79;99178.77;135815;1276;26629;-60
2023/08/16 13:04:02;;;;;;;20.00;7.40;;;;;;;44.56;25.99;99178.11;135800;1276;22537;-58
2023/08/16 13:07:05;;;;;;;18.60;7.70;;;;;;;44.41;26.58;99176.98;135862;1276;22530;-60
2023/08/16 13:10:08;;;;;;;22.40;8.60;;;;;;;44.41;26.97;99175.02;135829;1276;22524;-60
2023/08/16 13:13:10;;;;;;;20.80;8.60;;;;;;;44.64;26.95;99176.73;135833;1276;22546;-60
2023/08/16 13:16:13;;;;;;;22.50;8.50;;;;;;;44.82;27.29;99181.02;135753;1276;22536;-57
2023/08/16 13:19:15;;;;;;;21.60;8.50;;;;;;;45.08;27.01;99182.27;135798;1271;22509;-59
2023/08/16 13:22:17;;;;;;;21.00;8.30;;;;;;;45.17;27.22;99180.07;135837;1276;22667;-60
2023/08/16 13:25:20;;;;;;;21.80;9.10;;;;;;;45.17;27.13;99177.59;135819;1276;22526;-60
2023/08/16 13:28:23;;;;;;;20.90;7.90;;;;;;;45.12;27.15;99174.98;135650;1276;22533;-58
2023/08/16 13:31:25;;;;;;;21.00;7.70;;;;;;;44.87;26.62;99173.80;135803;1276;25450;-58
2023/08/16 13:34:27;;;;;;;19.80;7.20;;;;;;;44.63;26.51;99170.38;135834;1268;22536;-57
2023/08/16 13:37:30;;;;;;;21.00;7.10;;;;;;;44.39;26.63;99169.59;135821;1276;25255;-59
2023/08/16 13:40:33;;;;;;;20.30;7.30;;;;;;;44.05;26.49;99170.16;135850;1276;22550;-59
2023/08/16 13:43:35;;;;;;;19.90;7.50;;;;;;;43.60;26.70;99174.22;135849;1276;22709;-59
2023/08/16 13:46:38;;;;;;;21.00;8.00;;;;;;;43.40;27.15;99175.39;135705;1268;22614;-58
2023/08/16 13:49:40;;;;;;;21.00;8.00;;;;;;;43.13;27.67;99175.12;135820;1276;22526;-58
2023/08/16 13:52:43;;;;;;;20.00;8.40;;;;;;;43.16;27.96;99174.09;135849;1276;22537;-58
2023/08/16 13:55:45;;;;;;;20.10;8.60;;;;;;;43.49;27.99;99174.58;135856;1276;22569;-58
2023/08/16 13:58:48;;;;;;;19.30;7.70;;;;;;;43.74;27.78;99184.48;135820;1276;22528;-57
2023/08/16 14:01:50;;;;;;;20.70;8.00;;;;;;;43.62;27.67;99185.05;135811;1276;25236;-58
2023/08/16 14:04:53;;;;;;;21.10;8.10;;;;;;;43.65;27.85;99185.98;135816;1276;22530;-59
2023/08/16 14:07:55;;;;;;;19.20;7.50;;;;;;;43.75;27.87;99188.69;135878;1272;24259;-62
2023/08/16 14:10:58;;;;;;;19.00;8.20;;;;;;;43.76;27.58;99187.00;135780;1255;22589;-60
2023/08/16 14:14:01;;;;;;;20.70;8.40;;;;;;;43.70;27.45;99188.10;135755;1276;22531;-60